Dutchess County Airport
KPOU : now visible

Airfield :











YOU CAN JOIN US ON...

 
LOGIN :

Register | Disclaimer

   EN    FR    IT 

 









Legend :    VFR   Marginal VFR   IFR   Intensive IFR   Very Intensive IFR
Visi :
Ceiling :
>= 8 km
>= 3000ft
5 to 8 km
1000 to 3000 ft
1500m to 5 km
500 to 1000 ft
800 to 1500m
200 to 500 ft
< 800m
< 200 ft
Symbols :   Thunderstorms  Fog  Heavy snow  Heavy precipitations  Wind > 20 kt






- Airport Elevation : 165 ft
- IATA code : POU


KPOU - Dutchess County

CURRENT METAR :
  • 161753Z VRB04KT 10SM BKN028 24/18 A3022 RMK AO2 SLP228 T02440178 10244 20178 58005

EXPIRED METARs :
  • 161653Z 36005KT 10SM BKN065 23/18 A3023 RMK AO2 SLP233 T02330178
  • 161600Z 35006KT 10SM FEW017 22/17 A3023 RMK AO2 T02220172
  • 161553Z 35005KT 10SM BKN017 BKN055 22/17 A3023 RMK AO2 SLP234 T02220172

TAF KPOU
Valid from the 16 at 18:00 until the 17 at 18:00 UTC


161720Z 1618/1718 05006KT P6SM BKN045
FM170000 09004KT P6SM BKN030
FM170300 08005KT P6SM OVC015
FM171600 08006KT P6SM BKN030
KZBW FIR / North America



MET'MAP, your aeronautical weather chart ! - Copyright ORBIFLY December 2007 - Disclaimer

ORBIFLY MET'MAP TEAM :

Programming & Development : Alexandra Zaïnal
Concept & original design : Baudouin d'Aumeries
Assistance for programming : Marc-Olivier Méhu
Technical & hardware support : Manuel Goepfert

Contact : metmap@orbifly.com




SOURCES & CREDITS :

   NOAA       Earth
Advisory